Time;durP1;ratioP1;P1;durP2;ratioP2;P2;SDS_P1;SDS_P2;PMS_P1;PMS_P2;Temp;Humidity;BMP_temperature;BMP_pressure;BME280_temperature;BME280_humidity;BME280_pressure;Samples;Min_cycle;Max_cycle;Signal;HPM_P1;HPM_P2
2021/12/22 00:00:49;;;;;;;21.08;9.35;;;;;;;;;;4988896;28;20045;-66
2021/12/22 00:03:15;;;;;;;18.85;8.68;;;;;;;;;;4988221;28;20046;-66
2021/12/22 00:05:45;;;;;;;19.65;8.15;;;1.00;99.90;;;;;;4990277;28;20136;-65
2021/12/22 00:08:12;;;;;;;19.67;7.47;;;;;;;;;;4988093;28;20050;-65
2021/12/22 00:10:38;;;;;;;20.25;8.82;;;0.60;99.90;;;;;;4993296;28;20042;-66
2021/12/22 00:13:03;;;;;;;16.73;8.02;;;0.70;99.90;;;;;;4985791;28;20069;-66
2021/12/22 00:15:29;;;;;;;17.30;8.68;;;0.70;99.90;;;;;;4988566;28;20482;-66
2021/12/22 00:17:55;;;;;;;17.77;9.65;;;0.70;99.90;;;;;;4988091;28;20113;-65
2021/12/22 00:20:20;;;;;;;31.77;10.85;;;0.70;99.90;;;;;;4983584;28;20014;-65
2021/12/22 00:22:46;;;;;;;25.05;10.13;;;0.60;99.90;;;;;;4992302;28;20033;-66
2021/12/22 00:25:11;;;;;;;26.30;11.18;;;0.40;99.90;;;;;;4988461;28;20030;-66
2021/12/22 00:27:37;;;;;;;18.65;10.18;;;0.60;99.90;;;;;;4987797;28;20034;-65
2021/12/22 00:30:03;;;;;;;17.85;8.85;;;0.70;99.90;;;;;;4989997;28;20036;-66
2021/12/22 00:32:31;;;;;;;22.35;10.65;;;0.60;99.90;;;;;;4985342;28;20118;-66
2021/12/22 00:34:56;;;;;;;21.70;9.10;;;0.60;99.90;;;;;;4990859;28;20053;-65
2021/12/22 00:37:28;;;;;;;18.98;9.60;;;0.60;99.90;;;;;;4992453;28;20034;-66
2021/12/22 00:39:54;;;;;;;23.08;10.80;;;0.60;99.90;;;;;;4985782;28;20622;-65
2021/12/22 00:42:19;;;;;;;21.10;9.38;;;0.50;99.90;;;;;;4989693;28;20034;-65
2021/12/22 00:44:50;;;;;;;23.02;10.10;;;0.40;99.90;;;;;;4989454;28;20038;-65
2021/12/22 00:47:15;;;;;;;22.65;10.32;;;1.00;99.90;;;;;;4986989;28;20034;-65
2021/12/22 00:49:41;;;;;;;27.95;10.88;;;0.50;99.90;;;;;;4993106;28;20034;-65
2021/12/22 00:52:06;;;;;;;27.33;10.85;;;0.40;99.90;;;;;;4989072;28;20849;-65
2021/12/22 00:54:32;;;;;;;23.55;10.05;;;0.40;99.90;;;;;;4988179;28;20036;-65
2021/12/22 00:57:03;;;;;;;28.80;10.40;;;0.50;99.90;;;;;;4989419;28;20610;-65
2021/12/22 00:59:29;;;;;;;23.00;10.55;;;0.50;99.90;;;;;;4985217;28;20034;-66
2021/12/22 01:01:54;;;;;;;25.88;10.05;;;0.50;99.90;;;;;;4985350;28;20041;-66
2021/12/22 01:04:20;;;;;;;21.05;9.25;;;0.50;99.90;;;;;;4989973;28;20058;-65
2021/12/22 01:06:45;;;;;;;20.02;9.50;;;0.30;99.90;;;;;;4987070;28;20064;-66
2021/12/22 01:09:11;;;;;;;20.80;9.27;;;1.00;99.90;;;;;;4987444;28;20042;-65
2021/12/22 01:11:36;;;;;;;20.98;9.27;;;0.30;99.90;;;;;;4986948;28;20618;-66
2021/12/22 01:14:03;;;;;;;14.07;8.15;;;0.30;99.90;;;;;;4985582;28;20864;-65
2021/12/22 01:16:28;;;;;;;16.73;7.20;;;0.30;99.90;;;;;;4991359;28;20030;-65
2021/12/22 01:18:55;;;;;;;13.90;7.78;;;0.30;99.90;;;;;;4984262;28;20100;-65
2021/12/22 01:21:35;;;;;;;19.20;7.38;;;0.40;99.90;;;;;;4975390;28;20830;-66
2021/12/22 01:24:10;;;;;;;17.08;6.85;;;0.40;99.90;;;;;;4981437;28;20030;-66
2021/12/22 01:26:40;;;;;;;13.45;5.82;;;0.50;99.90;;;;;;4984960;28;20065;-66
2021/12/22 01:29:06;;;;;;;13.50;6.13;;;0.50;99.90;;;;;;4988572;28;20490;-65
2021/12/22 01:31:31;;;;;;;12.60;6.43;;;0.40;99.90;;;;;;4986160;28;20089;-66
2021/12/22 01:33:57;;;;;;;12.38;5.63;;;0.40;99.90;;;;;;4986078;28;20053;-65
2021/12/22 01:36:22;;;;;;;15.13;5.43;;;0.40;99.90;;;;;;4988503;28;20043;-66
2021/12/22 01:38:48;;;;;;;15.43;5.43;;;0.40;99.90;;;;;;4983729;28;20034;-65
2021/12/22 01:41:13;;;;;;;14.75;6.15;;;0.40;99.90;;;;;;4985985;28;20033;-65
2021/12/22 01:43:39;;;;;;;22.52;7.72;;;0.30;99.90;;;;;;4991920;28;20042;-65
2021/12/22 01:51:14;;;;;;;15.55;7.25;;;;;;;;;;4986391;28;20081;-65
2021/12/22 01:53:40;;;;;;;21.05;8.10;;;0.50;99.90;;;;;;4983844;28;20133;-65
2021/12/22 01:58:46;;;;;;;20.70;6.70;;;0.60;99.90;;;;;;4984409;28;20034;-65
2021/12/22 02:01:12;;;;;;;20.98;7.88;;;;;;;;;;4988247;28;20097;-65
2021/12/22 02:03:38;;;;;;;19.17;6.65;;;;;;;;;;4985726;28;20050;-65
2021/12/22 02:06:05;;;;;;;14.35;5.95;;;;;;;;;;4987078;28;20042;-65
2021/12/22 02:08:31;;;;;;;16.40;5.60;;;;;;;;;;4987059;28;20041;-65
2021/12/22 02:10:57;;;;;;;17.40;6.13;;;;;;;;;;4985689;28;20038;-65
2021/12/22 02:13:29;;;;;;;17.17;6.38;;;;;;;;;;4968027;28;20038;-65
2021/12/22 02:15:55;;;;;;;14.95;5.15;;;;;;;;;;4986412;28;20043;-66
2021/12/22 02:18:21;;;;;;;14.00;5.60;;;0.30;99.90;;;;;;4982207;28;20516;-65
2021/12/22 02:20:47;;;;;;;12.93;5.65;;;0.30;99.90;;;;;;4984589;28;20018;-65
2021/12/22 02:23:13;;;;;;;15.82;5.80;;;0.30;99.90;;;;;;4985859;28;20038;-65
2021/12/22 02:25:46;;;;;;;11.95;5.03;;;0.30;99.90;;;;;;4984972;28;20040;-65
2021/12/22 02:28:19;;;;;;;16.98;5.90;;;0.40;99.90;;;;;;4990262;28;20065;-65
2021/12/22 02:30:45;;;;;;;12.23;5.72;;;0.30;99.90;;;;;;4985813;28;20045;-65
2021/12/22 02:33:22;;;;;;;8.50;4.90;;;0.40;99.90;;;;;;4987578;28;20034;-65
2021/12/22 02:36:23;;;;;;;11.82;5.50;;;0.30;99.90;;;;;;4992379;28;20057;-65
2021/12/22 02:38:39;;;;;;;19.85;5.55;;;0.30;99.90;;;;;;4984078;28;20096;-65
2021/12/22 02:41:07;;;;;;;10.02;4.57;;;0.40;99.90;;;;;;4986725;28;20034;-65
2021/12/22 02:43:34;;;;;;;9.85;4.82;;;0.30;99.90;;;;;;4990405;28;20049;-65
2021/12/22 02:45:59;;;;;;;13.40;3.88;;;0.30;99.90;;;;;;4982633;28;20035;-65
2021/12/22 02:48:25;;;;;;;10.70;4.85;;;0.50;99.90;;;;;;4987490;28;20544;-65
2021/12/22 02:50:54;;;;;;;10.25;5.18;;;0.40;99.90;;;;;;4986794;28;20980;-65
2021/12/22 02:53:21;;;;;;;9.55;4.63;;;0.40;99.90;;;;;;4982328;28;20137;-65
2021/12/22 02:55:50;;;;;;;10.20;5.28;;;0.40;99.90;;;;;;4989110;28;20043;-66
2021/12/22 02:58:30;;;;;;;11.23;4.75;;;0.30;99.90;;;;;;4986774;28;20505;-67
2021/12/22 03:06:04;;;;;;;10.07;5.32;;;;;;;;;;4982951;28;20966;-65
2021/12/22 03:08:30;;;;;;;12.88;5.70;;;;;;;;;;4988734;28;20037;-66
2021/12/22 03:10:55;;;;;;;9.10;4.90;;;0.50;99.90;;;;;;4985224;28;20039;-65
2021/12/22 03:13:21;;;;;;;12.98;6.07;;;;;;;;;;4985394;28;20030;-66
2021/12/22 03:15:47;;;;;;;15.43;5.80;;;0.40;99.90;;;;;;4982971;28;20490;-65
2021/12/22 03:18:13;;;;;;;11.60;5.10;;;;;;;;;;4982862;28;20627;-65
2021/12/22 03:20:39;;;;;;;11.18;5.88;;;;;;;;;;4981895;28;20554;-65
2021/12/22 03:23:05;;;;;;;12.05;6.43;;;;;;;;;;4993503;28;20496;-65
2021/12/22 03:25:31;;;;;;;13.10;6.47;;;;;;;;;;4990076;28;20025;-65
2021/12/22 03:28:02;;;;;;;19.35;6.57;;;;;;;;;;4994222;28;20038;-65
2021/12/22 03:30:27;;;;;;;12.77;7.43;;;0.50;99.90;;;;;;4988237;28;20044;-65
2021/12/22 03:32:53;;;;;;;11.52;6.88;;;;;;;;;;4987367;28;20486;-66
2021/12/22 03:35:21;;;;;;;12.43;6.57;;;;;;;;;;4991456;28;20030;-65
2021/12/22 03:37:49;;;;;;;11.90;6.30;;;;;;;;;;4988202;28;20093;-65
2021/12/22 03:40:15;;;;;;;13.50;7.13;;;;;;;;;;4990232;28;20036;-66
2021/12/22 03:42:40;;;;;;;18.50;7.00;;;;;;;;;;4991381;28;20051;-65
2021/12/22 03:45:06;;;;;;;17.85;6.90;;;0.50;99.90;;;;;;4985643;28;20072;-66
2021/12/22 03:47:31;;;;;;;15.85;7.18;;;0.40;99.90;;;;;;4987694;28;20026;-65
2021/12/22 03:49:57;;;;;;;17.05;7.65;;;0.40;99.90;;;;;;4992066;28;20034;-66
2021/12/22 03:52:23;;;;;;;26.15;8.93;;;;;;;;;;4983498;28;20042;-65
2021/12/22 03:54:54;;;;;;;16.60;7.95;;;0.50;99.90;;;;;;4990042;28;20041;-65
2021/12/22 03:57:19;;;;;;;18.63;8.05;;;0.50;99.90;;;;;;4991102;28;20034;-66
2021/12/22 03:59:45;;;;;;;20.30;8.70;;;0.50;99.90;;;;;;4986945;28;20065;-65
2021/12/22 04:02:11;;;;;;;18.50;8.38;;;0.50;99.90;;;;;;4988933;28;20065;-65
2021/12/22 04:04:37;;;;;;;23.25;9.43;;;0.30;99.90;;;;;;4987725;28;20035;-65
2021/12/22 04:07:02;;;;;;;28.90;9.57;;;0.40;99.90;;;;;;4988911;28;20039;-66
2021/12/22 04:09:28;;;;;;;16.48;8.30;;;0.30;99.90;;;;;;4992851;28;20080;-65
2021/12/22 04:11:54;;;;;;;15.90;8.57;;;;;;;;;;4985234;28;20038;-65
2021/12/22 04:14:20;;;;;;;22.02;9.00;;;;;;;;;;4988091;28;20030;-65
2021/12/22 04:16:46;;;;;;;16.90;8.48;;;0.40;99.90;;;;;;4988214;28;20117;-65
2021/12/22 04:19:12;;;;;;;15.77;7.88;;;;;;;;;;4986263;28;20507;-65
2021/12/22 04:21:38;;;;;;;25.67;9.27;;;;;;;;;;4988601;28;20034;-65
2021/12/22 04:24:06;;;;;;;20.40;8.52;;;;;;;;;;4988330;28;20034;-65
2021/12/22 04:26:32;;;;;;;16.20;8.10;;;;;;;;;;4990865;28;20049;-65
2021/12/22 04:28:59;;;;;;;20.23;8.25;;;;;;;;;;4989682;28;20489;-65
2021/12/22 04:31:25;;;;;;;15.63;7.13;;;;;;;;;;4984147;28;20031;-65
2021/12/22 04:33:51;;;;;;;22.25;8.55;;;;;;;;;;4987087;28;20443;-66
2021/12/22 04:36:17;;;;;;;14.57;7.28;;;;;;;;;;4988180;28;20026;-65
2021/12/22 04:38:43;;;;;;;15.48;7.40;;;;;;;;;;4986235;28;20031;-65
2021/12/22 04:41:09;;;;;;;21.73;8.13;;;;;;;;;;4999094;28;20030;-65
2021/12/22 04:43:35;;;;;;;19.85;8.23;;;;;;;;;;4991363;28;20035;-65
2021/12/22 04:46:01;;;;;;;21.50;8.05;;;;;;;;;;4985612;28;20041;-65
2021/12/22 04:48:27;;;;;;;14.30;6.85;;;;;;;;;;4991813;28;20734;-65
2021/12/22 04:50:53;;;;;;;17.02;8.10;;;;;;;;;;5000636;28;20030;-65
2021/12/22 04:53:25;;;;;;;21.33;8.27;;;-1.10;99.90;;;;;;4987893;28;20628;-66
2021/12/22 04:55:50;;;;;;;16.90;8.63;;;-0.90;99.90;;;;;;4990675;28;20389;-65
2021/12/22 04:58:16;;;;;;;15.88;7.65;;;-0.80;99.90;;;;;;4982060;28;20030;-65
2021/12/22 05:00:42;;;;;;;19.17;8.93;;;;;;;;;;4989980;28;20068;-65
2021/12/22 05:03:08;;;;;;;24.75;9.68;;;;;;;;;;4989516;28;20716;-65
2021/12/22 05:05:34;;;;;;;20.48;8.15;;;;;;;;;;4985716;28;20033;-65
2021/12/22 05:08:00;;;;;;;15.65;7.68;;;;;;;;;;4998962;28;20502;-66
2021/12/22 05:10:26;;;;;;;18.35;7.97;;;;;;;;;;4987282;28;20474;-66
2021/12/22 05:12:52;;;;;;;16.20;7.68;;;;;;;;;;4984108;28;20042;-65
2021/12/22 05:15:20;;;;;;;19.23;8.35;;;;;;;;;;4990645;28;20573;-65
2021/12/22 05:20:12;;;;;;;17.33;7.65;;;;;;;;;;4990671;28;20114;-66
2021/12/22 05:22:38;;;;;;;18.15;7.90;;;;;;;;;;4990321;28;20034;-66
2021/12/22 05:25:04;;;;;;;18.45;8.10;;;;;;;;;;4983905;28;20076;-66
2021/12/22 05:27:30;;;;;;;19.70;8.75;;;;;;;;;;4989759;28;20088;-66
2021/12/22 05:29:55;;;;;;;19.25;8.27;;;-1.90;99.90;;;;;;4990743;28;20036;-66
2021/12/22 05:32:24;;;;;;;16.35;8.10;;;-1.70;99.90;;;;;;4985444;28;20523;-66
2021/12/22 05:34:50;;;;;;;20.35;8.18;;;;;;;;;;4987692;28;20044;-66
2021/12/22 05:37:16;;;;;;;16.08;7.40;;;;;;;;;;4982201;28;20057;-66
2021/12/22 05:39:42;;;;;;;20.52;8.60;;;-2.20;99.90;;;;;;4985131;28;20034;-66
2021/12/22 05:42:07;;;;;;;18.63;8.13;;;-1.80;99.90;;;;;;4991427;28;20033;-66
2021/12/22 05:44:33;;;;;;;17.90;8.73;;;-1.80;99.90;;;;;;4985542;28;20034;-66
2021/12/22 05:46:58;;;;;;;15.98;7.82;;;-2.10;99.90;;;;;;4985061;28;20753;-66
2021/12/22 05:49:24;;;;;;;24.80;8.38;;;-1.70;99.90;;;;;;4991454;28;20026;-66
2021/12/22 05:51:49;;;;;;;23.65;9.00;;;-2.00;99.90;;;;;;4985609;28;20598;-66
2021/12/22 05:54:15;;;;;;;14.98;7.70;;;-2.00;99.90;;;;;;4989570;28;20117;-66
2021/12/22 05:56:40;;;;;;;22.85;7.85;;;-1.70;99.90;;;;;;4985974;28;20110;-66
2021/12/22 05:59:06;;;;;;;23.55;8.30;;;-1.70;99.90;;;;;;4997186;28;20121;-66
2021/12/22 06:01:32;;;;;;;18.65;8.88;;;-2.00;99.90;;;;;;4989996;28;20026;-66
2021/12/22 06:03:59;;;;;;;18.38;8.27;;;-1.70;99.90;;;;;;4987217;28;20053;-66
2021/12/22 06:06:26;;;;;;;17.33;8.20;;;;;;;;;;4987460;28;20038;-66
2021/12/22 06:08:52;;;;;;;19.88;8.75;;;;;;;;;;4990643;28;20042;-66
2021/12/22 06:11:18;;;;;;;17.90;8.10;;;;;;;;;;4996111;28;20352;-66
2021/12/22 06:13:43;;;;;;;21.73;8.52;;;-2.00;99.90;;;;;;4987096;28;20042;-66
2021/12/22 06:16:09;;;;;;;23.90;9.32;;;-1.60;99.90;;;;;;4986225;28;20041;-66
2021/12/22 06:18:41;;;;;;;23.10;8.65;;;;;;;;;;4984439;28;20533;-66
2021/12/22 06:21:07;;;;;;;20.35;8.60;;;;;;;;;;4981603;28;20394;-66
2021/12/22 06:23:33;;;;;;;19.60;8.32;;;;;;;;;;4983461;28;20100;-66
2021/12/22 06:25:59;;;;;;;18.08;8.82;;;-2.50;99.90;;;;;;4981565;28;20637;-66
2021/12/22 06:28:24;;;;;;;23.38;8.75;;;-2.20;99.90;;;;;;4988684;28;20030;-66
2021/12/22 06:30:50;;;;;;;25.80;8.88;;;-2.40;99.90;;;;;;4981296;28;20034;-66
2021/12/22 06:33:15;;;;;;;28.33;8.75;;;-2.30;99.90;;;;;;4994177;28;20489;-66
2021/12/22 06:35:41;;;;;;;25.23;9.77;;;-2.30;99.90;;;;;;4984879;28;20030;-66
2021/12/22 06:38:06;;;;;;;22.27;8.90;;;-2.40;99.90;;;;;;4983275;28;20446;-66
2021/12/22 06:40:32;;;;;;;21.38;8.88;;;-2.30;99.90;;;;;;4996627;28;20034;-66
2021/12/22 06:42:57;;;;;;;28.58;9.80;;;-2.30;99.90;;;;;;4986573;28;20489;-66
2021/12/22 06:45:24;;;;;;;19.80;8.90;;;-2.30;99.90;;;;;;4981243;28;20117;-66
2021/12/22 06:47:50;;;;;;;20.77;8.80;;;-2.50;99.90;;;;;;4991317;28;20084;-66
2021/12/22 06:50:15;;;;;;;24.55;9.32;;;-2.50;99.90;;;;;;4984558;28;20825;-66
2021/12/22 06:52:41;;;;;;;26.67;10.00;;;-2.50;99.90;;;;;;4981794;28;20113;-66
2021/12/22 06:55:07;;;;;;;24.33;10.40;;;-2.50;99.90;;;;;;4986288;28;20035;-66
2021/12/22 06:57:33;;;;;;;19.88;9.05;;;-2.50;99.90;;;;;;4986932;28;20406;-66
2021/12/22 07:00:00;;;;;;;24.83;9.15;;;-2.40;99.90;;;;;;4984889;28;20030;-66
2021/12/22 07:02:26;;;;;;;28.00;9.90;;;-2.40;99.90;;;;;;4989629;28;20034;-66
2021/12/22 07:04:52;;;;;;;32.20;10.88;;;-2.50;99.90;;;;;;4985091;28;20104;-67
2021/12/22 07:07:17;;;;;;;29.67;10.40;;;-2.30;99.90;;;;;;4997461;28;20038;-66
2021/12/22 07:09:43;;;;;;;26.92;10.32;;;-2.40;99.90;;;;;;4982371;28;20129;-66
2021/12/22 07:12:08;;;;;;;27.20;10.68;;;-2.30;99.90;;;;;;4989077;28;20129;-66
2021/12/22 07:14:34;;;;;;;31.50;11.70;;;-2.30;99.90;;;;;;4985112;28;20034;-67
2021/12/22 07:16:59;;;;;;;32.72;12.23;;;-2.20;99.90;;;;;;4984090;28;20453;-66
2021/12/22 07:19:25;;;;;;;31.00;12.45;;;-2.20;99.90;;;;;;4990084;28;20065;-67
2021/12/22 07:21:50;;;;;;;31.60;12.18;;;-2.10;99.90;;;;;;4986250;28;20807;-66
2021/12/22 07:24:16;;;;;;;29.05;12.43;;;-2.10;99.90;;;;;;4984115;28;20505;-67
2021/12/22 07:26:42;;;;;;;31.30;11.95;;;-2.10;99.90;;;;;;4986715;28;20030;-67
2021/12/22 07:29:08;;;;;;;37.75;11.07;;;-2.40;99.90;;;;;;4986391;28;20042;-67
2021/12/22 07:31:34;;;;;;;29.45;11.82;;;-2.00;99.90;;;;;;4986010;28;20144;-67
2021/12/22 07:33:59;;;;;;;32.28;12.80;;;-2.00;99.90;;;;;;4990071;28;20482;-67
2021/12/22 07:36:25;;;;;;;32.20;12.20;;;;;;;;;;4998491;28;20041;-66
2021/12/22 07:38:50;;;;;;;29.90;12.88;;;-2.40;99.90;;;;;;4985174;28;20058;-66
2021/12/22 07:41:16;;;;;;;36.97;12.52;;;-1.90;99.90;;;;;;4988765;28;20037;-67
2021/12/22 07:43:41;;;;;;;37.03;14.65;;;-2.10;99.90;;;;;;4983344;28;20030;-66
2021/12/22 07:46:08;;;;;;;33.55;13.43;;;-1.70;99.90;;;;;;4986680;28;20497;-66
2021/12/22 07:48:34;;;;;;;33.40;13.13;;;-1.50;99.90;;;;;;4991986;28;20034;-66
2021/12/22 07:50:59;;;;;;;35.85;13.52;;;-1.60;99.90;;;;;;4969100;28;20587;-66
2021/12/22 07:53:25;;;;;;;35.70;11.00;;;;;;;;;;4982565;28;20035;-66
2021/12/22 07:55:54;;;;;;;34.45;12.77;;;-1.60;99.90;;;;;;4984361;28;20088;-65
2021/12/22 07:58:19;;;;;;;33.70;12.40;;;-1.90;99.90;;;;;;4983905;28;20446;-66
2021/12/22 08:00:45;;;;;;;36.22;13.77;;;-1.90;99.90;;;;;;4982617;28;20030;-65
2021/12/22 08:03:11;;;;;;;37.67;13.63;;;-1.50;99.90;;;;;;4981956;28;20698;-66
2021/12/22 08:05:37;;;;;;;32.42;13.63;;;-1.20;99.90;;;;;;4985208;28;20042;-65
2021/12/22 08:08:02;;;;;;;35.30;13.70;;;-1.50;99.90;;;;;;4987401;28;20037;-65
2021/12/22 08:10:28;;;;;;;39.30;13.27;;;-1.00;99.90;;;;;;4980461;28;20026;-66
2021/12/22 08:12:54;;;;;;;33.78;13.65;;;;;;;;;;4984507;28;20022;-65
2021/12/22 08:15:19;;;;;;;38.88;15.95;;;-0.70;99.90;;;;;;4986405;28;20109;-66
2021/12/22 08:17:45;;;;;;;39.72;13.98;;;-0.70;99.90;;;;;;4982593;28;20022;-66
2021/12/22 08:20:10;;;;;;;39.15;13.63;;;-0.60;99.90;;;;;;4990395;28;20942;-66
2021/12/22 08:22:36;;;;;;;33.05;13.48;;;-1.00;99.90;;;;;;4985015;28;20109;-66
2021/12/22 08:25:01;;;;;;;36.38;13.68;;;-1.00;99.90;;;;;;4990038;28;20641;-66
2021/12/22 08:27:27;;;;;;;33.55;14.05;;;-0.90;99.90;;;;;;4983687;28;20485;-66
2021/12/22 08:29:52;;;;;;;30.98;13.13;;;-0.70;99.90;;;;;;4989810;28;20097;-66
2021/12/22 08:32:18;;;;;;;33.15;12.30;;;;;;;;;;4983790;28;20034;-66
2021/12/22 08:34:46;;;;;;;29.23;12.32;;;-0.30;99.90;;;;;;4989941;28;20117;-66
2021/12/22 08:39:56;;;;;;;30.73;12.27;;;-0.30;99.90;;;;;;4984699;28;20562;-67
2021/12/22 08:42:21;;;;;;;28.67;12.35;;;-0.10;99.90;;;;;;4985019;28;20134;-67
2021/12/22 08:44:47;;;;;;;29.80;12.20;;;0.10;99.90;;;;;;4985621;28;20459;-66
2021/12/22 08:47:13;;;;;;;35.17;12.77;;;;;;;;;;4986193;28;20038;-66
2021/12/22 08:49:39;;;;;;;40.90;14.90;;;-0.10;99.90;;;;;;4981875;28;20060;-67
2021/12/22 08:52:04;;;;;;;32.20;13.85;;;0.30;99.90;;;;;;4985096;28;20160;-66
2021/12/22 08:54:30;;;;;;;33.67;14.05;;;0.10;99.90;;;;;;4982194;28;20414;-67
2021/12/22 08:56:55;;;;;;;39.75;15.48;;;0.40;99.90;;;;;;4989789;28;20038;-66
2021/12/22 08:59:21;;;;;;;35.17;15.25;;;0.40;99.90;;;;;;4986245;28;20030;-66
2021/12/22 09:01:46;;;;;;;55.20;20.38;;;0.10;99.90;;;;;;4987632;28;20034;-67
2021/12/22 09:04:12;;;;;;;33.60;14.88;;;0.50;99.90;;;;;;4984422;28;20038;-66
2021/12/22 09:06:37;;;;;;;36.92;15.95;;;0.00;99.90;;;;;;4985599;28;20034;-66
2021/12/22 09:09:03;;;;;;;39.33;16.02;;;0.70;99.90;;;;;;4986309;28;20046;-65
2021/12/22 09:11:28;;;;;;;36.20;15.18;;;0.60;99.90;;;;;;4983528;28;20109;-66
2021/12/22 09:13:55;;;;;;;37.67;16.38;;;;;;;;;;4985052;28;20045;-66
2021/12/22 09:16:21;;;;;;;39.00;16.83;;;;;;;;;;4979551;28;20930;-66
2021/12/22 09:18:46;;;;;;;31.50;14.52;;;0.80;99.90;;;;;;4981093;28;20034;-65
2021/12/22 09:21:12;;;;;;;33.72;15.60;;;0.30;99.90;;;;;;4982464;28;20065;-65
2021/12/22 09:23:38;;;;;;;37.85;15.98;;;;;;;;;;4986608;28;20034;-66
2021/12/22 09:26:03;;;;;;;36.90;16.20;;;0.80;99.90;;;;;;4984128;28;20469;-66
2021/12/22 09:28:29;;;;;;;33.88;15.55;;;0.50;99.90;;;;;;4994615;28;20065;-65
2021/12/22 09:30:54;;;;;;;35.55;16.30;;;0.50;99.90;;;;;;4990269;28;20441;-66
2021/12/22 09:33:20;;;;;;;38.78;16.40;;;;;;;;;;4981618;28;20034;-67
2021/12/22 09:35:46;;;;;;;40.60;16.50;;;1.00;99.90;;;;;;4981738;28;20042;-66
2021/12/22 09:38:11;;;;;;;40.42;17.42;;;1.70;99.90;;;;;;4983216;28;20500;-66
2021/12/22 09:40:37;;;;;;;35.10;16.60;;;;;;;;;;4987668;28;20042;-66
2021/12/22 09:43:02;;;;;;;33.58;16.10;;;1.40;99.90;;;;;;4989639;28;20049;-66
2021/12/22 09:45:28;;;;;;;38.70;15.30;;;1.30;99.90;;;;;;4982837;28;20030;-65
2021/12/22 09:50:45;;;;;;;39.15;16.23;;;1.10;99.90;;;;;;4977677;28;20040;-66
2021/12/22 09:53:10;;;;;;;39.20;15.23;;;1.10;99.90;;;;;;4982053;28;20176;-66
2021/12/22 09:55:36;;;;;;;33.75;14.55;;;1.10;99.90;;;;;;4987582;28;20644;-66
2021/12/22 09:58:01;;;;;;;32.78;15.20;;;1.40;99.90;;;;;;4982551;28;20165;-66
2021/12/22 10:00:26;;;;;;;33.90;15.93;;;1.90;99.90;;;;;;4985043;28;20427;-65
2021/12/22 10:02:52;;;;;;;39.25;17.35;;;1.60;99.90;;;;;;4979344;28;20254;-66
2021/12/22 10:05:17;;;;;;;35.35;14.82;;;1.10;99.90;;;;;;4981726;28;20535;-65
2021/12/22 10:07:44;;;;;;;34.25;16.02;;;1.00;99.90;;;;;;4987435;28;20110;-66
2021/12/22 10:10:10;;;;;;;34.35;15.77;;;1.20;99.90;;;;;;4982768;28;20069;-65
2021/12/22 10:12:35;;;;;;;41.20;15.77;;;1.10;99.90;;;;;;4983723;28;20160;-65
2021/12/22 10:15:00;;;;;;;32.88;15.30;;;1.10;99.90;;;;;;4990546;28;20045;-65
2021/12/22 10:17:26;;;;;;;35.28;15.55;;;1.10;99.90;;;;;;4982166;28;20034;-65
2021/12/22 10:19:54;;;;;;;30.13;14.70;;;1.20;99.90;;;;;;4979443;28;20035;-65
2021/12/22 10:22:20;;;;;;;30.70;14.40;;;1.10;99.90;;;;;;4984262;28;20491;-66
2021/12/22 10:24:46;;;;;;;31.42;14.98;;;1.90;99.90;;;;;;4981514;28;20089;-65
2021/12/22 10:27:12;;;;;;;66.85;30.90;;;1.10;99.90;;;;;;4986026;28;21072;-66
2021/12/22 10:29:37;;;;;;;28.60;14.45;;;1.20;99.90;;;;;;4979107;28;20044;-65
2021/12/22 10:32:03;;;;;;;35.30;15.35;;;1.20;99.90;;;;;;4981594;28;20042;-65
2021/12/22 10:34:28;;;;;;;31.95;16.40;;;1.20;99.90;;;;;;4983934;28;20026;-65
2021/12/22 10:36:54;;;;;;;30.63;14.98;;;1.30;99.90;;;;;;4984186;28;20034;-64
2021/12/22 10:39:20;;;;;;;34.35;14.68;;;1.40;99.90;;;;;;4984213;28;20035;-65
2021/12/22 10:41:45;;;;;;;30.05;14.50;;;1.50;99.90;;;;;;4988818;28;20065;-65
2021/12/22 10:44:11;;;;;;;28.65;14.32;;;1.80;99.90;;;;;;4979829;28;20037;-65
2021/12/22 10:46:36;;;;;;;33.38;15.85;;;1.40;99.90;;;;;;4985469;28;20034;-65
2021/12/22 10:49:14;;;;;;;31.05;14.65;;;1.50;99.90;;;;;;4986783;28;20566;-65
2021/12/22 10:51:41;;;;;;;27.75;12.77;;;1.60;99.90;;;;;;4982366;28;20069;-65
2021/12/22 10:54:07;;;;;;;28.20;14.63;;;1.80;99.90;;;;;;4980853;28;20049;-64
2021/12/22 10:56:32;;;;;;;29.60;13.75;;;1.80;99.90;;;;;;4982072;28;20030;-64
2021/12/22 10:58:58;;;;;;;28.48;13.10;;;2.00;99.90;;;;;;4973801;28;20559;-64
2021/12/22 11:01:23;;;;;;;35.30;12.77;;;2.00;99.90;;;;;;4983457;28;20489;-65
2021/12/22 11:03:51;;;;;;;28.00;13.50;;;2.10;99.90;;;;;;4983295;28;20038;-65
2021/12/22 11:06:17;;;;;;;30.27;14.18;;;2.20;99.90;;;;;;4980655;28;20031;-65
2021/12/22 11:08:43;;;;;;;28.95;12.70;;;2.40;99.90;;;;;;4982433;28;20093;-65
2021/12/22 11:11:08;;;;;;;30.92;14.48;;;2.20;99.90;;;;;;4981145;28;20038;-67
2021/12/22 11:13:34;;;;;;;26.80;14.18;;;2.30;99.90;;;;;;4987761;28;20116;-66
2021/12/22 11:15:59;;;;;;;31.67;14.25;;;2.20;99.90;;;;;;4983946;28;20041;-65
2021/12/22 11:18:25;;;;;;;25.38;13.38;;;2.10;99.90;;;;;;4983304;28;20058;-65
2021/12/22 11:20:50;;;;;;;32.03;13.90;;;2.10;99.90;;;;;;4985188;28;20031;-65
2021/12/22 11:23:15;;;;;;;30.70;15.13;;;2.30;99.90;;;;;;4990907;28;20067;-65
2021/12/22 11:25:43;;;;;;;28.73;13.32;;;2.40;99.90;;;;;;4981608;28;20066;-66
2021/12/22 11:28:08;;;;;;;27.38;14.15;;;2.50;99.90;;;;;;4983214;28;20030;-65
2021/12/22 11:30:34;;;;;;;37.55;16.73;;;2.50;99.90;;;;;;4981929;28;20084;-65
2021/12/22 11:32:59;;;;;;;36.92;15.90;;;2.80;99.90;;;;;;4981366;28;20538;-65
2021/12/22 11:35:25;;;;;;;24.83;12.55;;;2.60;99.90;;;;;;4984314;28;20073;-69
2021/12/22 11:37:50;;;;;;;25.38;12.65;;;2.60;99.90;;;;;;4988517;28;20035;-69
2021/12/22 11:40:21;;;;;;;29.05;12.60;;;2.90;99.90;;;;;;4986096;28;20026;-69
2021/12/22 11:42:47;;;;;;;33.70;15.93;;;3.00;99.90;;;;;;4990224;28;20034;-70
2021/12/22 11:45:12;;;;;;;53.33;22.52;;;3.30;99.90;;;;;;4987924;28;20543;-65
2021/12/22 11:47:38;;;;;;;40.10;18.50;;;3.40;99.90;;;;;;4989999;28;20030;-70
2021/12/22 11:50:03;;;;;;;55.95;25.65;;;3.30;99.90;;;;;;4988142;28;20022;-69
2021/12/22 11:52:29;;;;;;;50.42;21.65;;;4.10;99.90;;;;;;4990001;28;20041;-67
2021/12/22 11:54:54;;;;;;;24.25;11.75;;;3.40;99.90;;;;;;4989842;28;20477;-69
2021/12/22 11:57:20;;;;;;;51.90;24.35;;;3.40;99.90;;;;;;4993539;28;20026;-69
2021/12/22 11:59:46;;;;;;;44.05;19.00;;;5.20;99.90;;;;;;4986201;28;20038;-72
2021/12/22 12:02:11;;;;;;;24.67;12.35;;;3.60;99.90;;;;;;4986252;28;20049;-69
2021/12/22 12:04:37;;;;;;;23.00;11.95;;;3.60;99.90;;;;;;4985733;28;20042;-69
2021/12/22 12:07:02;;;;;;;67.97;32.28;;;3.90;99.90;;;;;;4992117;28;20049;-69
2021/12/22 12:09:28;;;;;;;28.73;14.85;;;4.30;99.90;;;;;;4984769;28;20034;-66
2021/12/22 12:11:56;;;;;;;25.83;13.02;;;4.10;99.90;;;;;;4985517;28;20034;-66
2021/12/22 12:14:21;;;;;;;23.40;11.77;;;4.10;99.90;;;;;;4991117;28;20092;-66
2021/12/22 12:22:10;;;;;;;27.50;13.05;;;4.20;99.90;;;;;;4982409;28;20042;-71
2021/12/22 12:24:37;;;;;;;25.77;12.68;;;3.80;99.90;;;;;;4988850;28;20387;-70
2021/12/22 12:27:04;;;;;;;30.27;13.32;;;3.80;99.90;;;;;;4988385;28;20054;-69
2021/12/22 12:29:29;;;;;;;27.50;13.70;;;3.60;99.90;;;;;;4986319;28;20054;-70
2021/12/22 12:31:56;;;;;;;27.50;13.00;;;3.00;99.90;;;;;;4983557;28;20118;-70
2021/12/22 12:34:21;;;;;;;23.40;12.88;;;3.50;99.90;;;;;;4992355;28;20815;-70
2021/12/22 12:36:47;;;;;;;27.38;13.48;;;3.60;99.90;;;;;;4983999;28;20035;-69
2021/12/22 12:39:13;;;;;;;28.52;13.35;;;3.70;99.90;;;;;;4983823;28;20030;-70
2021/12/22 12:41:38;;;;;;;26.67;12.30;;;3.70;99.90;;;;;;4992676;28;20124;-69
2021/12/22 12:44:04;;;;;;;25.35;13.05;;;3.80;99.90;;;;;;4981530;28;20060;-69
2021/12/22 12:46:37;;;;;;;23.98;12.70;;;3.80;99.90;;;;;;4987222;28;20607;-70
2021/12/22 12:49:03;;;;;;;26.73;13.10;;;3.60;99.90;;;;;;4984936;28;20433;-69
2021/12/22 12:51:30;;;;;;;23.85;11.98;;;3.60;99.90;;;;;;4983407;28;20030;-66
2021/12/22 12:53:56;;;;;;;21.80;11.45;;;3.50;99.90;;;;;;4987832;28;20077;-65
2021/12/22 12:56:21;;;;;;;24.13;11.82;;;3.50;99.90;;;;;;4986907;28;20097;-66
2021/12/22 12:58:47;;;;;;;25.27;12.10;;;3.60;99.90;;;;;;4986351;28;20509;-65
2021/12/22 13:01:12;;;;;;;25.55;11.98;;;3.60;99.90;;;;;;4985388;28;20034;-66
2021/12/22 13:03:38;;;;;;;21.65;11.32;;;3.50;99.90;;;;;;4981701;28;20133;-66
2021/12/22 13:06:03;;;;;;;22.35;11.40;;;3.60;99.90;;;;;;4984338;28;20031;-65
2021/12/22 13:08:29;;;;;;;29.20;14.57;;;4.70;99.90;;;;;;4988589;28;20605;-66
2021/12/22 13:10:57;;;;;;;25.38;12.05;;;3.50;99.90;;;;;;4985232;28;20037;-65
2021/12/22 13:13:49;;;;;;;23.00;11.55;;;4.90;99.90;;;;;;4989991;28;20140;-65
2021/12/22 13:16:08;;;;;;;24.98;11.65;;;3.60;99.90;;;;;;4979049;28;20042;-65
2021/12/22 13:18:34;;;;;;;21.58;10.85;;;3.70;99.90;;;;;;4983852;28;20034;-65
2021/12/22 13:21:02;;;;;;;22.75;11.68;;;3.80;99.90;;;;;;4986864;28;20089;-66